Southern Tiare — E5U2082 — position and weather

sailwx.info

Track history (hours):
 
Tides and Currents Weather Stations Pressure Air Temp Water Temp Dewpoint Dewpoint Depression Visibility Wind Speed Wind Dir Waves Ship Positions

Southern Tiare

Last reported at 2015-Jan-18 02:31 UTC. Time now 2015-Jan-28 12:11 UTC.
Position S 36°21' E 174°57'.
Warning: this ship's position is 10 days out of date.

Length 67 m; draft 3.3 m.

Type: Cargo ship. MMSI: 518132000.

Date/timePositionNaut miles runAvg speedWind from/ knotsBaromVisibWave heightAir tempDewpointWater temp
2015-Jan-18 02:31S 36°21' E 174°57'9 9.4
2015-Jan-18 01:33S 36°30' E 174°57'9 9.3
2015-Jan-18 00:33S 36°40' E 174°55'10 9.6
2015-Jan-17 23:33S 36°48' E 174°49'3 2.9
2015-Jan-17 22:25S 36°51' E 174°47'0 0.0
2015-Jan-17 21:31S 36°51' E 174°47'0 0.0
2015-Jan-17 20:30S 36°51' E 174°47'0 0.0
2015-Jan-17 19:25S 36°51' E 174°47'0 0.0
2015-Jan-17 18:31S 36°51' E 174°47'0 0.0
2015-Jan-17 17:31S 36°51' E 174°47'0 0.0
2015-Jan-17 16:31S 36°51' E 174°47'0 0.0
2015-Jan-17 15:31S 36°51' E 174°47'0 0.0
2015-Jan-17 14:31S 36°51' E 174°47'0 0.0
2015-Jan-17 13:31S 36°51' E 174°47'0 0.0
2015-Jan-17 12:31S 36°51' E 174°47'0 0.0
2015-Jan-17 11:31S 36°51' E 174°47'0 0.0
2015-Jan-17 10:31S 36°51' E 174°47'0 0.0
2015-Jan-17 09:31S 36°51' E 174°47'0 0.0
2015-Jan-17 08:31S 36°51' E 174°47'0 0.0
2015-Jan-17 07:30S 36°51' E 174°47'0 0.0
2015-Jan-17 06:31S 36°51' E 174°47'0 0.0
2015-Jan-17 05:31S 36°51' E 174°47'0 0.0
2015-Jan-17 04:31S 36°51' E 174°47'0 0.0
2015-Jan-17 03:31S 36°51' E 174°47'0 0.0
2015-Jan-17 02:31S 36°51' E 174°47'0 0.0
2015-Jan-17 01:31S 36°51' E 174°47'0 0.0
2015-Jan-17 00:31S 36°51' E 174°47'5 4.9
2015-Jan-16 23:33S 36°46' E 174°49'10 9.8
2015-Jan-16 22:33S 36°39' E 174°58'  
Track history (hours):
 
Tides and Currents Weather Stations Pressure Air Temp Water Temp Dewpoint Dewpoint Depression Visibility Wind Speed Wind Dir Waves Ship Positions

Southern Tiare

Last reported at 2015-Jan-18 02:31 UTC. Time now 2015-Jan-28 12:11 UTC.
Position S 36°21' E 174°57'.
Warning: this ship's position is 10 days out of date.

Length 67 m; draft 3.3 m.

Type: Cargo ship. MMSI: 518132000.

Date/timePositionNaut miles runAvg speedWind from/ knotsBaromVisibWave heightAir tempDewpointWater temp
2015-Jan-18 02:31S 36°21' E 174°57'9 9.4
2015-Jan-18 01:33S 36°30' E 174°57'9 9.3
2015-Jan-18 00:33S 36°40' E 174°55'10 9.6
2015-Jan-17 23:33S 36°48' E 174°49'3 2.9
2015-Jan-17 22:25S 36°51' E 174°47'0 0.0
2015-Jan-17 21:31S 36°51' E 174°47'0 0.0
2015-Jan-17 20:30S 36°51' E 174°47'0 0.0
2015-Jan-17 19:25S 36°51' E 174°47'0 0.0
2015-Jan-17 18:31S 36°51' E 174°47'0 0.0
2015-Jan-17 17:31S 36°51' E 174°47'0 0.0
2015-Jan-17 16:31S 36°51' E 174°47'0 0.0
2015-Jan-17 15:31S 36°51' E 174°47'0 0.0
2015-Jan-17 14:31S 36°51' E 174°47'0 0.0
2015-Jan-17 13:31S 36°51' E 174°47'0 0.0
2015-Jan-17 12:31S 36°51' E 174°47'0 0.0
2015-Jan-17 11:31S 36°51' E 174°47'0 0.0
2015-Jan-17 10:31S 36°51' E 174°47'0 0.0
2015-Jan-17 09:31S 36°51' E 174°47'0 0.0
2015-Jan-17 08:31S 36°51' E 174°47'0 0.0
2015-Jan-17 07:30S 36°51' E 174°47'0 0.0
2015-Jan-17 06:31S 36°51' E 174°47'0 0.0
2015-Jan-17 05:31S 36°51' E 174°47'0 0.0
2015-Jan-17 04:31S 36°51' E 174°47'0 0.0
2015-Jan-17 03:31S 36°51' E 174°47'0 0.0
2015-Jan-17 02:31S 36°51' E 174°47'0 0.0
2015-Jan-17 01:31S 36°51' E 174°47'0 0.0
2015-Jan-17 00:31S 36°51' E 174°47'5 4.9
2015-Jan-16 23:33S 36°46' E 174°49'10 9.8
2015-Jan-16 22:33S 36°39' E 174°58'  

Dump ship's entire track history